sensor_id;sensor_type;location;lat;lon;timestamp;P1;durP1;ratioP1;P2;durP2;ratioP2
13309;SDS011;6723;48.256;16.402;2023-04-03T00:01:37;3.80;;;3.10;;
13309;SDS011;6723;48.256;16.402;2023-04-03T00:04:04;3.67;;;3.30;;
13309;SDS011;6723;48.256;16.402;2023-04-03T00:06:30;4.07;;;3.60;;
13309;SDS011;6723;48.256;16.402;2023-04-03T00:08:57;4.63;;;3.17;;
13309;SDS011;6723;48.256;16.402;2023-04-03T00:11:22;3.43;;;2.63;;
13309;SDS011;6723;48.256;16.402;2023-04-03T00:13:50;3.07;;;2.70;;
13309;SDS011;6723;48.256;16.402;2023-04-03T00:16:16;3.13;;;2.83;;
13309;SDS011;6723;48.256;16.402;2023-04-03T00:18:42;3.63;;;3.00;;
13309;SDS011;6723;48.256;16.402;2023-04-03T00:21:08;3.50;;;3.10;;
13309;SDS011;6723;48.256;16.402;2023-04-03T00:23:37;5.17;;;3.40;;
13309;SDS011;6723;48.256;16.402;2023-04-03T00:26:03;3.47;;;3.17;;
13309;SDS011;6723;48.256;16.402;2023-04-03T00:28:28;3.40;;;3.10;;
13309;SDS011;6723;48.256;16.402;2023-04-03T00:30:54;4.00;;;3.30;;
13309;SDS011;6723;48.256;16.402;2023-04-03T00:33:20;4.53;;;2.80;;
13309;SDS011;6723;48.256;16.402;2023-04-03T00:35:46;3.43;;;2.70;;
13309;SDS011;6723;48.256;16.402;2023-04-03T00:38:13;3.33;;;2.97;;
13309;SDS011;6723;48.256;16.402;2023-04-03T00:40:44;4.13;;;3.33;;
13309;SDS011;6723;48.256;16.402;2023-04-03T00:43:16;4.53;;;2.80;;
13309;SDS011;6723;48.256;16.402;2023-04-03T00:45:50;3.80;;;2.90;;
13309;SDS011;6723;48.256;16.402;2023-04-03T00:48:20;3.17;;;2.87;;
13309;SDS011;6723;48.256;16.402;2023-04-03T00:51:14;3.63;;;2.90;;
13309;SDS011;6723;48.256;16.402;2023-04-03T00:54:03;3.00;;;2.67;;
13309;SDS011;6723;48.256;16.402;2023-04-03T00:56:31;4.07;;;2.50;;
13309;SDS011;6723;48.256;16.402;2023-04-03T01:01:28;3.40;;;2.70;;
13309;SDS011;6723;48.256;16.402;2023-04-03T01:03:55;3.73;;;2.90;;
13309;SDS011;6723;48.256;16.402;2023-04-03T01:06:24;5.20;;;3.27;;
13309;SDS011;6723;48.256;16.402;2023-04-03T01:08:53;4.00;;;2.67;;
13309;SDS011;6723;48.256;16.402;2023-04-03T01:11:20;3.67;;;2.93;;
13309;SDS011;6723;48.256;16.402;2023-04-03T01:13:46;3.73;;;2.80;;
13309;SDS011;6723;48.256;16.402;2023-04-03T01:16:13;3.50;;;2.87;;
13309;SDS011;6723;48.256;16.402;2023-04-03T01:18:39;3.83;;;2.93;;
13309;SDS011;6723;48.256;16.402;2023-04-03T01:21:24;6.20;;;4.50;;
13309;SDS011;6723;48.256;16.402;2023-04-03T01:26:28;4.30;;;3.37;;
13309;SDS011;6723;48.256;16.402;2023-04-03T01:28:55;4.40;;;3.20;;
13309;SDS011;6723;48.256;16.402;2023-04-03T01:34:10;3.40;;;2.70;;
13309;SDS011;6723;48.256;16.402;2023-04-03T01:36:36;3.20;;;2.83;;
13309;SDS011;6723;48.256;16.402;2023-04-03T01:39:02;4.27;;;2.90;;
13309;SDS011;6723;48.256;16.402;2023-04-03T01:41:28;4.03;;;3.53;;
13309;SDS011;6723;48.256;16.402;2023-04-03T01:43:54;4.80;;;3.80;;
13309;SDS011;6723;48.256;16.402;2023-04-03T01:46:20;3.30;;;3.00;;
13309;SDS011;6723;48.256;16.402;2023-04-03T01:48:47;5.63;;;2.83;;
13309;SDS011;6723;48.256;16.402;2023-04-03T01:51:13;3.60;;;2.60;;
13309;SDS011;6723;48.256;16.402;2023-04-03T01:53:39;3.53;;;2.77;;
13309;SDS011;6723;48.256;16.402;2023-04-03T01:56:05;3.50;;;2.73;;
13309;SDS011;6723;48.256;16.402;2023-04-03T01:58:32;5.47;;;2.77;;
13309;SDS011;6723;48.256;16.402;2023-04-03T02:00:58;3.47;;;2.70;;
13309;SDS011;6723;48.256;16.402;2023-04-03T02:03:23;3.47;;;3.07;;
13309;SDS011;6723;48.256;16.402;2023-04-03T02:05:49;3.10;;;2.43;;
13309;SDS011;6723;48.256;16.402;2023-04-03T02:08:15;3.53;;;2.50;;
13309;SDS011;6723;48.256;16.402;2023-04-03T02:10:46;2.50;;;2.30;;
13309;SDS011;6723;48.256;16.402;2023-04-03T02:13:13;4.40;;;2.60;;
13309;SDS011;6723;48.256;16.402;2023-04-03T02:15:40;4.50;;;2.67;;
13309;SDS011;6723;48.256;16.402;2023-04-03T02:18:06;3.50;;;2.50;;
13309;SDS011;6723;48.256;16.402;2023-04-03T02:20:32;3.33;;;2.50;;
13309;SDS011;6723;48.256;16.402;2023-04-03T02:22:58;2.03;;;1.83;;
13309;SDS011;6723;48.256;16.402;2023-04-03T02:25:25;2.60;;;2.20;;
13309;SDS011;6723;48.256;16.402;2023-04-03T02:27:51;3.57;;;2.37;;
13309;SDS011;6723;48.256;16.402;2023-04-03T02:30:17;3.90;;;2.30;;
13309;SDS011;6723;48.256;16.402;2023-04-03T02:32:43;2.50;;;2.07;;
13309;SDS011;6723;48.256;16.402;2023-04-03T02:35:10;2.40;;;2.13;;
13309;SDS011;6723;48.256;16.402;2023-04-03T02:37:36;2.40;;;2.20;;
13309;SDS011;6723;48.256;16.402;2023-04-03T02:40:04;2.50;;;2.30;;
13309;SDS011;6723;48.256;16.402;2023-04-03T02:42:31;2.50;;;2.27;;
13309;SDS011;6723;48.256;16.402;2023-04-03T02:44:57;3.27;;;2.37;;
13309;SDS011;6723;48.256;16.402;2023-04-03T02:47:27;3.13;;;2.60;;
13309;SDS011;6723;48.256;16.402;2023-04-03T02:49:53;2.93;;;2.50;;
13309;SDS011;6723;48.256;16.402;2023-04-03T02:52:18;3.13;;;2.50;;
13309;SDS011;6723;48.256;16.402;2023-04-03T02:54:45;3.00;;;2.70;;
13309;SDS011;6723;48.256;16.402;2023-04-03T02:59:40;4.70;;;2.90;;
13309;SDS011;6723;48.256;16.402;2023-04-03T03:02:06;3.77;;;2.87;;
13309;SDS011;6723;48.256;16.402;2023-04-03T03:04:33;2.80;;;2.50;;
13309;SDS011;6723;48.256;16.402;2023-04-03T03:06:59;3.60;;;2.97;;
13309;SDS011;6723;48.256;16.402;2023-04-03T03:11:55;3.53;;;2.80;;
13309;SDS011;6723;48.256;16.402;2023-04-03T03:14:21;3.80;;;2.70;;
13309;SDS011;6723;48.256;16.402;2023-04-03T03:16:47;3.67;;;2.77;;
13309;SDS011;6723;48.256;16.402;2023-04-03T03:19:14;3.60;;;2.50;;
13309;SDS011;6723;48.256;16.402;2023-04-03T03:21:40;2.67;;;2.47;;
13309;SDS011;6723;48.256;16.402;2023-04-03T03:24:05;3.43;;;2.50;;
13309;SDS011;6723;48.256;16.402;2023-04-03T03:26:33;2.53;;;2.30;;
13309;SDS011;6723;48.256;16.402;2023-04-03T03:28:59;3.30;;;2.23;;
13309;SDS011;6723;48.256;16.402;2023-04-03T03:31:25;3.30;;;2.47;;
13309;SDS011;6723;48.256;16.402;2023-04-03T03:33:51;2.50;;;2.30;;
13309;SDS011;6723;48.256;16.402;2023-04-03T03:36:16;2.70;;;2.37;;
13309;SDS011;6723;48.256;16.402;2023-04-03T03:38:42;2.60;;;2.27;;
13309;SDS011;6723;48.256;16.402;2023-04-03T03:41:08;2.77;;;2.17;;
13309;SDS011;6723;48.256;16.402;2023-04-03T03:43:34;2.60;;;2.40;;
13309;SDS011;6723;48.256;16.402;2023-04-03T03:46:00;2.57;;;2.30;;
13309;SDS011;6723;48.256;16.402;2023-04-03T03:48:26;2.63;;;2.23;;
13309;SDS011;6723;48.256;16.402;2023-04-03T03:50:51;3.10;;;2.43;;
13309;SDS011;6723;48.256;16.402;2023-04-03T03:53:17;2.77;;;2.20;;
13309;SDS011;6723;48.256;16.402;2023-04-03T03:55:44;2.73;;;2.30;;
13309;SDS011;6723;48.256;16.402;2023-04-03T03:58:09;3.37;;;2.50;;
13309;SDS011;6723;48.256;16.402;2023-04-03T04:00:35;3.10;;;2.47;;
13309;SDS011;6723;48.256;16.402;2023-04-03T04:03:01;2.90;;;2.60;;
13309;SDS011;6723;48.256;16.402;2023-04-03T04:05:27;2.90;;;2.67;;
13309;SDS011;6723;48.256;16.402;2023-04-03T04:07:52;2.60;;;2.40;;
13309;SDS011;6723;48.256;16.402;2023-04-03T04:10:18;2.93;;;2.20;;
13309;SDS011;6723;48.256;16.402;2023-04-03T04:12:44;3.40;;;2.67;;
13309;SDS011;6723;48.256;16.402;2023-04-03T04:15:10;2.60;;;2.40;;
13309;SDS011;6723;48.256;16.402;2023-04-03T04:17:36;3.33;;;2.60;;
13309;SDS011;6723;48.256;16.402;2023-04-03T04:20:02;2.53;;;2.33;;
13309;SDS011;6723;48.256;16.402;2023-04-03T04:22:30;2.80;;;2.60;;
13309;SDS011;6723;48.256;16.402;2023-04-03T04:24:55;2.60;;;2.40;;
13309;SDS011;6723;48.256;16.402;2023-04-03T04:27:21;3.40;;;2.70;;
13309;SDS011;6723;48.256;16.402;2023-04-03T04:29:47;3.20;;;2.63;;
13309;SDS011;6723;48.256;16.402;2023-04-03T04:32:13;3.07;;;2.33;;
13309;SDS011;6723;48.256;16.402;2023-04-03T04:34:38;3.43;;;2.90;;
13309;SDS011;6723;48.256;16.402;2023-04-03T04:37:05;2.87;;;2.57;;
13309;SDS011;6723;48.256;16.402;2023-04-03T04:39:30;3.53;;;2.80;;
13309;SDS011;6723;48.256;16.402;2023-04-03T04:41:58;3.30;;;2.87;;
13309;SDS011;6723;48.256;16.402;2023-04-03T04:44:24;4.03;;;2.87;;
13309;SDS011;6723;48.256;16.402;2023-04-03T04:46:50;2.90;;;2.60;;
13309;SDS011;6723;48.256;16.402;2023-04-03T04:49:15;3.67;;;2.97;;
13309;SDS011;6723;48.256;16.402;2023-04-03T04:51:41;5.37;;;2.70;;
13309;SDS011;6723;48.256;16.402;2023-04-03T04:54:07;3.77;;;2.93;;
13309;SDS011;6723;48.256;16.402;2023-04-03T04:56:33;3.67;;;2.97;;
13309;SDS011;6723;48.256;16.402;2023-04-03T04:58:59;4.67;;;2.70;;
13309;SDS011;6723;48.256;16.402;2023-04-03T05:01:24;4.03;;;2.80;;
13309;SDS011;6723;48.256;16.402;2023-04-03T05:03:51;3.97;;;2.87;;
13309;SDS011;6723;48.256;16.402;2023-04-03T05:06:17;5.23;;;2.80;;
13309;SDS011;6723;48.256;16.402;2023-04-03T05:08:43;3.87;;;2.60;;
13309;SDS011;6723;48.256;16.402;2023-04-03T05:11:08;3.23;;;2.50;;
13309;SDS011;6723;48.256;16.402;2023-04-03T05:13:34;4.83;;;2.40;;
13309;SDS011;6723;48.256;16.402;2023-04-03T05:16:00;3.40;;;2.73;;
13309;SDS011;6723;48.256;16.402;2023-04-03T05:18:26;6.80;;;2.93;;
13309;SDS011;6723;48.256;16.402;2023-04-03T05:20:51;6.33;;;3.30;;
13309;SDS011;6723;48.256;16.402;2023-04-03T05:23:17;4.63;;;3.20;;
13309;SDS011;6723;48.256;16.402;2023-04-03T05:25:44;4.33;;;3.20;;
13309;SDS011;6723;48.256;16.402;2023-04-03T05:28:12;3.30;;;3.00;;
13309;SDS011;6723;48.256;16.402;2023-04-03T05:30:38;3.77;;;3.10;;
13309;SDS011;6723;48.256;16.402;2023-04-03T05:33:04;3.70;;;2.83;;
13309;SDS011;6723;48.256;16.402;2023-04-03T05:35:31;4.43;;;3.10;;
13309;SDS011;6723;48.256;16.402;2023-04-03T05:37:57;3.40;;;3.10;;
13309;SDS011;6723;48.256;16.402;2023-04-03T05:40:23;4.07;;;3.33;;
13309;SDS011;6723;48.256;16.402;2023-04-03T05:42:49;3.17;;;2.87;;
13309;SDS011;6723;48.256;16.402;2023-04-03T05:45:14;5.23;;;2.83;;
13309;SDS011;6723;48.256;16.402;2023-04-03T05:47:40;3.90;;;2.97;;
13309;SDS011;6723;48.256;16.402;2023-04-03T05:50:06;3.50;;;2.83;;
13309;SDS011;6723;48.256;16.402;2023-04-03T05:52:36;3.80;;;2.63;;
13309;SDS011;6723;48.256;16.402;2023-04-03T05:55:05;3.40;;;2.57;;
13309;SDS011;6723;48.256;16.402;2023-04-03T05:57:31;3.80;;;2.57;;
13309;SDS011;6723;48.256;16.402;2023-04-03T05:59:57;8.37;;;3.27;;
13309;SDS011;6723;48.256;16.402;2023-04-03T06:02:23;3.97;;;2.57;;
13309;SDS011;6723;48.256;16.402;2023-04-03T06:04:51;6.33;;;3.00;;
13309;SDS011;6723;48.256;16.402;2023-04-03T06:07:21;5.27;;;2.80;;
13309;SDS011;6723;48.256;16.402;2023-04-03T06:09:52;4.07;;;2.80;;
13309;SDS011;6723;48.256;16.402;2023-04-03T06:12:18;4.90;;;2.90;;
13309;SDS011;6723;48.256;16.402;2023-04-03T06:14:44;5.00;;;3.27;;
13309;SDS011;6723;48.256;16.402;2023-04-03T06:17:10;6.60;;;3.33;;
13309;SDS011;6723;48.256;16.402;2023-04-03T06:19:37;5.30;;;3.40;;
13309;SDS011;6723;48.256;16.402;2023-04-03T06:22:03;4.30;;;3.10;;
13309;SDS011;6723;48.256;16.402;2023-04-03T06:24:29;4.27;;;3.17;;
13309;SDS011;6723;48.256;16.402;2023-04-03T06:26:55;4.83;;;3.20;;
13309;SDS011;6723;48.256;16.402;2023-04-03T06:29:22;3.37;;;2.70;;
13309;SDS011;6723;48.256;16.402;2023-04-03T06:31:49;5.07;;;3.37;;
13309;SDS011;6723;48.256;16.402;2023-04-03T06:34:15;4.10;;;2.90;;
13309;SDS011;6723;48.256;16.402;2023-04-03T06:36:43;4.33;;;2.93;;
13309;SDS011;6723;48.256;16.402;2023-04-03T06:39:14;4.70;;;3.13;;
13309;SDS011;6723;48.256;16.402;2023-04-03T06:41:42;6.47;;;3.00;;
13309;SDS011;6723;48.256;16.402;2023-04-03T06:44:08;6.10;;;3.30;;
13309;SDS011;6723;48.256;16.402;2023-04-03T06:46:36;8.00;;;3.37;;
13309;SDS011;6723;48.256;16.402;2023-04-03T06:49:02;4.03;;;2.90;;
13309;SDS011;6723;48.256;16.402;2023-04-03T06:51:30;4.67;;;3.00;;
13309;SDS011;6723;48.256;16.402;2023-04-03T06:53:57;5.20;;;2.97;;
13309;SDS011;6723;48.256;16.402;2023-04-03T06:56:24;7.13;;;3.47;;
13309;SDS011;6723;48.256;16.402;2023-04-03T06:58:51;6.73;;;3.00;;
13309;SDS011;6723;48.256;16.402;2023-04-03T07:01:22;8.53;;;3.20;;
13309;SDS011;6723;48.256;16.402;2023-04-03T07:03:51;5.30;;;3.10;;
13309;SDS011;6723;48.256;16.402;2023-04-03T07:06:17;4.50;;;3.07;;
13309;SDS011;6723;48.256;16.402;2023-04-03T07:08:46;6.13;;;3.23;;
13309;SDS011;6723;48.256;16.402;2023-04-03T07:11:13;5.30;;;3.20;;
13309;SDS011;6723;48.256;16.402;2023-04-03T07:13:39;4.67;;;3.33;;
13309;SDS011;6723;48.256;16.402;2023-04-03T07:16:06;4.77;;;3.10;;
13309;SDS011;6723;48.256;16.402;2023-04-03T07:18:33;5.33;;;3.23;;
13309;SDS011;6723;48.256;16.402;2023-04-03T07:21:00;4.63;;;2.73;;
13309;SDS011;6723;48.256;16.402;2023-04-03T07:23:26;4.13;;;3.20;;
13309;SDS011;6723;48.256;16.402;2023-04-03T07:25:52;7.43;;;3.10;;
13309;SDS011;6723;48.256;16.402;2023-04-03T07:28:19;4.73;;;2.87;;
13309;SDS011;6723;48.256;16.402;2023-04-03T07:31:01;4.93;;;2.80;;
13309;SDS011;6723;48.256;16.402;2023-04-03T07:33:33;4.97;;;3.20;;
13309;SDS011;6723;48.256;16.402;2023-04-03T07:36:00;4.00;;;3.00;;
13309;SDS011;6723;48.256;16.402;2023-04-03T07:38:27;4.33;;;2.80;;
13309;SDS011;6723;48.256;16.402;2023-04-03T07:40:53;4.03;;;3.10;;
13309;SDS011;6723;48.256;16.402;2023-04-03T07:43:19;5.00;;;3.27;;
13309;SDS011;6723;48.256;16.402;2023-04-03T07:45:46;7.20;;;3.20;;
13309;SDS011;6723;48.256;16.402;2023-04-03T07:48:15;5.23;;;2.90;;
13309;SDS011;6723;48.256;16.402;2023-04-03T07:50:43;3.90;;;2.60;;
13309;SDS011;6723;48.256;16.402;2023-04-03T07:53:09;4.37;;;3.13;;
13309;SDS011;6723;48.256;16.402;2023-04-03T07:55:36;4.97;;;3.43;;
13309;SDS011;6723;48.256;16.402;2023-04-03T07:58:11;3.50;;;3.20;;
13309;SDS011;6723;48.256;16.402;2023-04-03T08:00:40;5.17;;;3.40;;
13309;SDS011;6723;48.256;16.402;2023-04-03T08:03:06;6.40;;;3.53;;
13309;SDS011;6723;48.256;16.402;2023-04-03T08:05:38;6.27;;;3.50;;
13309;SDS011;6723;48.256;16.402;2023-04-03T08:08:05;5.93;;;3.13;;
13309;SDS011;6723;48.256;16.402;2023-04-03T08:10:32;5.17;;;3.37;;
13309;SDS011;6723;48.256;16.402;2023-04-03T08:12:58;5.67;;;3.50;;
13309;SDS011;6723;48.256;16.402;2023-04-03T08:15:25;4.20;;;3.40;;
13309;SDS011;6723;48.256;16.402;2023-04-03T08:17:52;4.57;;;3.57;;
13309;SDS011;6723;48.256;16.402;2023-04-03T08:20:18;5.03;;;3.57;;
13309;SDS011;6723;48.256;16.402;2023-04-03T08:22:44;5.03;;;3.13;;
13309;SDS011;6723;48.256;16.402;2023-04-03T08:25:10;5.50;;;3.70;;
13309;SDS011;6723;48.256;16.402;2023-04-03T08:27:36;7.77;;;3.43;;
13309;SDS011;6723;48.256;16.402;2023-04-03T08:30:02;4.70;;;3.67;;
13309;SDS011;6723;48.256;16.402;2023-04-03T08:32:29;5.67;;;3.83;;
13309;SDS011;6723;48.256;16.402;2023-04-03T08:34:55;6.40;;;4.47;;
13309;SDS011;6723;48.256;16.402;2023-04-03T08:37:21;6.37;;;3.97;;
13309;SDS011;6723;48.256;16.402;2023-04-03T08:39:49;5.30;;;3.80;;
13309;SDS011;6723;48.256;16.402;2023-04-03T08:47:50;5.00;;;3.43;;
13309;SDS011;6723;48.256;16.402;2023-04-03T08:50:30;3.87;;;3.23;;
13309;SDS011;6723;48.256;16.402;2023-04-03T08:53:01;4.67;;;3.13;;
13309;SDS011;6723;48.256;16.402;2023-04-03T08:55:37;5.07;;;3.47;;
13309;SDS011;6723;48.256;16.402;2023-04-03T09:01:05;7.77;;;3.90;;
13309;SDS011;6723;48.256;16.402;2023-04-03T09:03:42;4.83;;;3.60;;
13309;SDS011;6723;48.256;16.402;2023-04-03T09:11:43;3.80;;;3.10;;
13309;SDS011;6723;48.256;16.402;2023-04-03T09:14:17;3.83;;;3.00;;
13309;SDS011;6723;48.256;16.402;2023-04-03T09:17:49;5.07;;;3.13;;
13309;SDS011;6723;48.256;16.402;2023-04-03T09:22:54;3.33;;;3.00;;
13309;SDS011;6723;48.256;16.402;2023-04-03T09:27:50;6.13;;;3.23;;
13309;SDS011;6723;48.256;16.402;2023-04-03T09:30:18;3.23;;;2.93;;
13309;SDS011;6723;48.256;16.402;2023-04-03T09:32:50;4.77;;;3.37;;
13309;SDS011;6723;48.256;16.402;2023-04-03T09:35:23;4.73;;;3.80;;
13309;SDS011;6723;48.256;16.402;2023-04-03T09:37:58;5.87;;;3.47;;
13309;SDS011;6723;48.256;16.402;2023-04-03T09:40:34;6.27;;;3.67;;
13309;SDS011;6723;48.256;16.402;2023-04-03T09:45:49;4.13;;;2.83;;
13309;SDS011;6723;48.256;16.402;2023-04-03T09:53:35;6.37;;;2.40;;
13309;SDS011;6723;48.256;16.402;2023-04-03T09:56:04;3.70;;;2.67;;
13309;SDS011;6723;48.256;16.402;2023-04-03T10:01:28;3.07;;;2.30;;
13309;SDS011;6723;48.256;16.402;2023-04-03T10:04:12;3.50;;;2.40;;
13309;SDS011;6723;48.256;16.402;2023-04-03T10:06:42;3.23;;;2.57;;
13309;SDS011;6723;48.256;16.402;2023-04-03T10:11:58;5.13;;;2.70;;
13309;SDS011;6723;48.256;16.402;2023-04-03T10:14:39;4.10;;;2.80;;
13309;SDS011;6723;48.256;16.402;2023-04-03T10:17:28;5.07;;;2.70;;
13309;SDS011;6723;48.256;16.402;2023-04-03T10:28:29;8.60;;;2.97;;
13309;SDS011;6723;48.256;16.402;2023-04-03T10:31:03;3.17;;;2.50;;
13309;SDS011;6723;48.256;16.402;2023-04-03T10:33:42;3.90;;;2.70;;
13309;SDS011;6723;48.256;16.402;2023-04-03T10:57:58;3.83;;;2.40;;
13309;SDS011;6723;48.256;16.402;2023-04-03T11:00:39;2.97;;;2.30;;
13309;SDS011;6723;48.256;16.402;2023-04-03T11:03:15;3.13;;;2.50;;
13309;SDS011;6723;48.256;16.402;2023-04-03T11:06:02;4.60;;;2.90;;
13309;SDS011;6723;48.256;16.402;2023-04-03T11:11:13;7.37;;;3.00;;
13309;SDS011;6723;48.256;16.402;2023-04-03T11:14:05;4.33;;;2.73;;
13309;SDS011;6723;48.256;16.402;2023-04-03T11:17:01;4.03;;;2.80;;
13309;SDS011;6723;48.256;16.402;2023-04-03T11:22:38;2.97;;;2.60;;
13309;SDS011;6723;48.256;16.402;2023-04-03T11:27:50;2.90;;;2.37;;
13309;SDS011;6723;48.256;16.402;2023-04-03T11:36:50;5.80;;;2.87;;
13309;SDS011;6723;48.256;16.402;2023-04-03T11:39:24;9.53;;;2.60;;
13309;SDS011;6723;48.256;16.402;2023-04-03T11:45:17;6.00;;;2.93;;
13309;SDS011;6723;48.256;16.402;2023-04-03T12:16:26;5.47;;;3.23;;
13309;SDS011;6723;48.256;16.402;2023-04-03T12:19:01;3.57;;;2.53;;
13309;SDS011;6723;48.256;16.402;2023-04-03T12:29:19;4.10;;;2.97;;
13309;SDS011;6723;48.256;16.402;2023-04-03T12:40:10;4.60;;;2.80;;
13309;SDS011;6723;48.256;16.402;2023-04-03T12:48:33;2.87;;;2.40;;
13309;SDS011;6723;48.256;16.402;2023-04-03T12:51:04;4.63;;;2.70;;
13309;SDS011;6723;48.256;16.402;2023-04-03T12:53:32;2.90;;;2.60;;
13309;SDS011;6723;48.256;16.402;2023-04-03T12:58:53;3.40;;;2.60;;
13309;SDS011;6723;48.256;16.402;2023-04-03T13:01:23;3.97;;;2.53;;
13309;SDS011;6723;48.256;16.402;2023-04-03T13:03:54;3.33;;;2.83;;
13309;SDS011;6723;48.256;16.402;2023-04-03T13:06:30;3.90;;;2.47;;
13309;SDS011;6723;48.256;16.402;2023-04-03T13:09:03;4.67;;;2.60;;
13309;SDS011;6723;48.256;16.402;2023-04-03T13:11:31;3.57;;;2.60;;
13309;SDS011;6723;48.256;16.402;2023-04-03T13:14:04;2.90;;;2.30;;
13309;SDS011;6723;48.256;16.402;2023-04-03T13:16:39;4.40;;;2.40;;
13309;SDS011;6723;48.256;16.402;2023-04-03T13:19:06;3.50;;;2.53;;
13309;SDS011;6723;48.256;16.402;2023-04-03T13:21:42;3.50;;;2.40;;
13309;SDS011;6723;48.256;16.402;2023-04-03T13:24:10;2.90;;;2.43;;
13309;SDS011;6723;48.256;16.402;2023-04-03T13:26:36;3.40;;;2.00;;
13309;SDS011;6723;48.256;16.402;2023-04-03T13:29:05;3.37;;;2.67;;
13309;SDS011;6723;48.256;16.402;2023-04-03T13:31:34;4.07;;;2.40;;
13309;SDS011;6723;48.256;16.402;2023-04-03T13:34:12;3.37;;;2.40;;
13309;SDS011;6723;48.256;16.402;2023-04-03T13:41:45;3.10;;;2.20;;
13309;SDS011;6723;48.256;16.402;2023-04-03T13:46:58;3.27;;;2.10;;
13309;SDS011;6723;48.256;16.402;2023-04-03T13:50:30;2.57;;;2.10;;
13309;SDS011;6723;48.256;16.402;2023-04-03T13:52:41;3.27;;;2.30;;
13309;SDS011;6723;48.256;16.402;2023-04-03T14:00:36;5.37;;;2.70;;
13309;SDS011;6723;48.256;16.402;2023-04-03T14:06:13;2.50;;;2.07;;
13309;SDS011;6723;48.256;16.402;2023-04-03T14:08:40;3.87;;;2.20;;
13309;SDS011;6723;48.256;16.402;2023-04-03T14:11:14;3.10;;;2.23;;
13309;SDS011;6723;48.256;16.402;2023-04-03T14:13:43;2.30;;;2.10;;
13309;SDS011;6723;48.256;16.402;2023-04-03T14:16:14;2.60;;;2.10;;
13309;SDS011;6723;48.256;16.402;2023-04-03T14:18:43;3.43;;;2.37;;
13309;SDS011;6723;48.256;16.402;2023-04-03T14:21:14;3.70;;;2.47;;
13309;SDS011;6723;48.256;16.402;2023-04-03T14:23:41;7.97;;;2.50;;
13309;SDS011;6723;48.256;16.402;2023-04-03T14:26:12;2.57;;;2.30;;
13309;SDS011;6723;48.256;16.402;2023-04-03T14:28:46;3.37;;;2.40;;
13309;SDS011;6723;48.256;16.402;2023-04-03T14:31:15;6.30;;;2.30;;
13309;SDS011;6723;48.256;16.402;2023-04-03T14:33:43;4.27;;;2.40;;
13309;SDS011;6723;48.256;16.402;2023-04-03T14:36:31;4.47;;;2.47;;
13309;SDS011;6723;48.256;16.402;2023-04-03T14:38:56;2.47;;;2.17;;
13309;SDS011;6723;48.256;16.402;2023-04-03T14:41:24;4.23;;;2.30;;
13309;SDS011;6723;48.256;16.402;2023-04-03T14:43:51;3.17;;;2.37;;
13309;SDS011;6723;48.256;16.402;2023-04-03T14:46:19;4.03;;;2.77;;
13309;SDS011;6723;48.256;16.402;2023-04-03T14:48:52;3.47;;;2.30;;
13309;SDS011;6723;48.256;16.402;2023-04-03T14:51:18;3.83;;;2.23;;
13309;SDS011;6723;48.256;16.402;2023-04-03T14:53:44;4.33;;;2.30;;
13309;SDS011;6723;48.256;16.402;2023-04-03T14:56:14;5.93;;;2.47;;
13309;SDS011;6723;48.256;16.402;2023-04-03T14:58:50;5.90;;;2.57;;
13309;SDS011;6723;48.256;16.402;2023-04-03T15:01:21;4.03;;;2.60;;
13309;SDS011;6723;48.256;16.402;2023-04-03T15:03:47;4.57;;;2.40;;
13309;SDS011;6723;48.256;16.402;2023-04-03T15:06:13;4.23;;;2.60;;
13309;SDS011;6723;48.256;16.402;2023-04-03T15:08:40;3.73;;;2.30;;
13309;SDS011;6723;48.256;16.402;2023-04-03T15:11:09;3.60;;;2.70;;
13309;SDS011;6723;48.256;16.402;2023-04-03T15:13:36;4.43;;;2.07;;
13309;SDS011;6723;48.256;16.402;2023-04-03T15:16:04;5.17;;;2.10;;
13309;SDS011;6723;48.256;16.402;2023-04-03T15:18:33;5.43;;;2.33;;
13309;SDS011;6723;48.256;16.402;2023-04-03T15:21:03;2.87;;;2.10;;
13309;SDS011;6723;48.256;16.402;2023-04-03T15:23:30;2.47;;;2.10;;
13309;SDS011;6723;48.256;16.402;2023-04-03T15:25:56;3.83;;;2.50;;
13309;SDS011;6723;48.256;16.402;2023-04-03T15:28:24;4.07;;;1.97;;
13309;SDS011;6723;48.256;16.402;2023-04-03T15:30:52;5.93;;;2.23;;
13309;SDS011;6723;48.256;16.402;2023-04-03T15:33:18;2.80;;;2.10;;
13309;SDS011;6723;48.256;16.402;2023-04-03T15:35:44;2.60;;;2.23;;
13309;SDS011;6723;48.256;16.402;2023-04-03T15:38:10;2.83;;;2.10;;
13309;SDS011;6723;48.256;16.402;2023-04-03T15:40:36;3.90;;;2.23;;
13309;SDS011;6723;48.256;16.402;2023-04-03T15:43:02;4.37;;;1.93;;
13309;SDS011;6723;48.256;16.402;2023-04-03T15:45:28;4.23;;;2.10;;
13309;SDS011;6723;48.256;16.402;2023-04-03T15:47:55;4.10;;;2.13;;
13309;SDS011;6723;48.256;16.402;2023-04-03T15:50:22;2.63;;;1.93;;
13309;SDS011;6723;48.256;16.402;2023-04-03T15:52:49;2.87;;;2.20;;
13309;SDS011;6723;48.256;16.402;2023-04-03T15:55:23;2.13;;;1.90;;
13309;SDS011;6723;48.256;16.402;2023-04-03T15:57:51;3.53;;;2.20;;
13309;SDS011;6723;48.256;16.402;2023-04-03T16:00:17;5.03;;;2.10;;
13309;SDS011;6723;48.256;16.402;2023-04-03T16:02:45;3.03;;;1.90;;
13309;SDS011;6723;48.256;16.402;2023-04-03T16:05:13;4.47;;;2.70;;
13309;SDS011;6723;48.256;16.402;2023-04-03T16:07:42;6.33;;;3.53;;
13309;SDS011;6723;48.256;16.402;2023-04-03T16:10:12;3.40;;;2.40;;
13309;SDS011;6723;48.256;16.402;2023-04-03T16:12:39;3.83;;;2.43;;
13309;SDS011;6723;48.256;16.402;2023-04-03T16:15:05;3.00;;;2.03;;
13309;SDS011;6723;48.256;16.402;2023-04-03T16:17:32;2.97;;;2.20;;
13309;SDS011;6723;48.256;16.402;2023-04-03T16:19:59;3.03;;;2.20;;
13309;SDS011;6723;48.256;16.402;2023-04-03T16:22:26;2.70;;;2.20;;
13309;SDS011;6723;48.256;16.402;2023-04-03T16:24:53;3.57;;;2.30;;
13309;SDS011;6723;48.256;16.402;2023-04-03T16:27:19;4.50;;;2.03;;
13309;SDS011;6723;48.256;16.402;2023-04-03T16:29:46;2.53;;;2.03;;
13309;SDS011;6723;48.256;16.402;2023-04-03T16:32:12;5.50;;;2.17;;
13309;SDS011;6723;48.256;16.402;2023-04-03T16:34:38;5.83;;;2.20;;
13309;SDS011;6723;48.256;16.402;2023-04-03T16:37:05;3.03;;;2.13;;
13309;SDS011;6723;48.256;16.402;2023-04-03T16:39:34;4.00;;;2.47;;
13309;SDS011;6723;48.256;16.402;2023-04-03T16:42:00;2.87;;;2.30;;
13309;SDS011;6723;48.256;16.402;2023-04-03T16:44:26;3.27;;;2.50;;
13309;SDS011;6723;48.256;16.402;2023-04-03T16:46:52;4.27;;;2.43;;
13309;SDS011;6723;48.256;16.402;2023-04-03T16:49:18;7.40;;;2.47;;
13309;SDS011;6723;48.256;16.402;2023-04-03T16:51:43;4.70;;;2.10;;
13309;SDS011;6723;48.256;16.402;2023-04-03T16:54:10;3.40;;;2.20;;
13309;SDS011;6723;48.256;16.402;2023-04-03T16:56:38;4.77;;;2.30;;
13309;SDS011;6723;48.256;16.402;2023-04-03T16:59:05;4.40;;;2.40;;
13309;SDS011;6723;48.256;16.402;2023-04-03T17:01:31;2.97;;;2.00;;
13309;SDS011;6723;48.256;16.402;2023-04-03T17:03:56;3.60;;;2.40;;
13309;SDS011;6723;48.256;16.402;2023-04-03T17:06:22;2.63;;;2.20;;
13309;SDS011;6723;48.256;16.402;2023-04-03T17:08:49;3.33;;;2.10;;
13309;SDS011;6723;48.256;16.402;2023-04-03T17:11:18;2.50;;;2.13;;
13309;SDS011;6723;48.256;16.402;2023-04-03T17:13:45;4.60;;;2.40;;
13309;SDS011;6723;48.256;16.402;2023-04-03T17:16:13;5.23;;;2.57;;
13309;SDS011;6723;48.256;16.402;2023-04-03T17:18:40;2.83;;;2.20;;
13309;SDS011;6723;48.256;16.402;2023-04-03T17:21:07;3.47;;;2.40;;
13309;SDS011;6723;48.256;16.402;2023-04-03T17:23:33;2.97;;;2.27;;
13309;SDS011;6723;48.256;16.402;2023-04-03T17:26:02;3.87;;;2.33;;
13309;SDS011;6723;48.256;16.402;2023-04-03T17:28:28;3.37;;;2.20;;
13309;SDS011;6723;48.256;16.402;2023-04-03T17:30:55;2.43;;;2.00;;
13309;SDS011;6723;48.256;16.402;2023-04-03T17:33:25;2.97;;;2.30;;
13309;SDS011;6723;48.256;16.402;2023-04-03T17:35:52;5.90;;;2.17;;
13309;SDS011;6723;48.256;16.402;2023-04-03T17:38:21;3.87;;;1.90;;
13309;SDS011;6723;48.256;16.402;2023-04-03T17:40:48;2.67;;;2.20;;